createdAt,value
2022-09-13T00:01:24.250Z,99314.47
2022-09-13T00:03:53.266Z,99311.17
2022-09-13T00:06:24.343Z,99301.16
2022-09-13T00:08:54.539Z,99309.94
2022-09-13T00:11:29.131Z,99304.92
2022-09-13T00:13:58.835Z,99311.33
2022-09-13T00:16:29.607Z,99299.47
2022-09-13T00:19:01.337Z,99305.13
2022-09-13T00:21:30.359Z,99305.17
2022-09-13T00:23:59.415Z,99298.01
2022-09-13T00:26:30.074Z,99298.01
2022-09-13T00:29:00.684Z,99293.70
2022-09-13T00:31:30.098Z,99293.70
2022-09-13T00:34:01.103Z,99307.99
2022-09-13T00:36:30.293Z,99311.78
2022-09-13T00:39:01.287Z,99306.94
2022-09-13T00:41:30.353Z,99308.65
2022-09-13T00:44:02.247Z,99312.30
2022-09-13T00:46:49.852Z,99312.30
2022-09-13T00:49:24.743Z,99301.38
2022-09-13T00:51:59.292Z,99301.38
2022-09-13T00:54:31.358Z,99291.38
2022-09-13T00:57:03.351Z,99299.22
2022-09-13T00:59:38.007Z,99298.52
2022-09-13T01:02:07.077Z,99295.77
2022-09-13T01:04:37.926Z,99293.63
2022-09-13T01:07:09.810Z,99289.63
2022-09-13T01:09:42.040Z,99289.63
2022-09-13T01:12:32.296Z,99285.92
2022-09-13T01:15:04.489Z,99288.61
2022-09-13T01:17:35.495Z,99281.12
2022-09-13T01:20:06.119Z,99280.02
2022-09-13T01:22:53.245Z,99280.02
2022-09-13T01:25:34.100Z,99303.17
2022-09-13T01:28:08.586Z,99301.97
2022-09-13T01:30:43.861Z,99301.97
2022-09-13T01:33:30.808Z,99298.56
2022-09-13T01:36:22.446Z,99308.08
2022-09-13T01:39:06.337Z,99305.82
2022-09-13T01:41:56.636Z,99299.18
2022-09-13T01:44:45.250Z,99302.45
2022-09-13T01:47:25.990Z,99302.45
2022-09-13T01:50:00.628Z,99302.00
2022-09-13T01:52:41.954Z,99294.39
2022-09-13T01:55:13.850Z,99294.39
2022-09-13T01:57:52.203Z,99295.91
2022-09-13T02:00:21.722Z,99295.91
2022-09-13T02:03:11.042Z,99290.01
2022-09-13T02:05:42.893Z,99299.16
2022-09-13T02:08:36.094Z,99299.16
2022-09-13T02:11:21.508Z,99302.51
2022-09-13T02:14:13.193Z,99302.34
2022-09-13T02:16:45.909Z,99299.95
2022-09-13T02:19:34.185Z,99304.02
2022-09-13T02:22:06.027Z,99300.26
2022-09-13T02:24:41.258Z,99303.02
2022-09-13T02:27:13.187Z,99304.75
2022-09-13T02:29:45.528Z,99304.75
2022-09-13T02:32:20.327Z,99302.77
2022-09-13T02:34:55.166Z,99304.41
2022-09-13T02:37:26.783Z,99307.16
2022-09-13T02:39:58.743Z,99308.19
2022-09-13T02:42:42.571Z,99302.91
2022-09-13T02:45:14.037Z,99303.58
2022-09-13T02:47:49.109Z,99299.16
2022-09-13T02:50:46.566Z,99294.98
2022-09-13T02:53:21.222Z,99300.56
2022-09-13T02:55:56.006Z,99299.95
2022-09-13T02:58:35.032Z,99299.95
2022-09-13T03:01:04.219Z,99306.97
2022-09-13T03:03:33.311Z,99297.30
2022-09-13T03:06:02.793Z,99297.30
2022-09-13T03:08:32.628Z,99288.12
2022-09-13T03:11:13.684Z,99290.59
2022-09-13T03:13:56.872Z,99279.43
2022-09-13T03:16:33.066Z,99279.43
2022-09-13T03:19:04.976Z,99282.81
2022-09-13T03:21:46.114Z,99282.81
2022-09-13T03:24:24.795Z,99278.41
2022-09-13T03:26:59.218Z,99283.92
2022-09-13T03:29:50.598Z,99276.13
2022-09-13T03:32:31.514Z,99279.02
2022-09-13T03:35:12.142Z,99273.78
2022-09-13T03:37:55.955Z,99272.45
2022-09-13T03:40:37.027Z,99265.22
2022-09-13T03:43:12.197Z,99269.97
2022-09-13T03:45:46.944Z,99268.50
2022-09-13T03:48:17.574Z,99267.99
2022-09-13T03:50:50.063Z,99272.19
2022-09-13T03:53:21.934Z,99267.14
2022-09-13T03:55:50.964Z,99272.27
2022-09-13T03:58:21.807Z,99275.83
2022-09-13T04:00:50.858Z,99275.83
2022-09-13T04:03:20.116Z,99284.41
2022-09-13T04:05:49.152Z,99284.23
2022-09-13T04:08:18.366Z,99287.65
2022-09-13T04:10:48.988Z,99284.34
2022-09-13T04:13:18.302Z,99284.03
2022-09-13T04:15:47.297Z,99283.80
2022-09-13T04:18:16.273Z,99283.80
2022-09-13T04:20:45.573Z,99283.31
2022-09-13T04:23:14.617Z,99276.34
2022-09-13T04:25:43.605Z,99282.91
2022-09-13T04:28:12.578Z,99272.06
2022-09-13T04:30:42.984Z,99269.94
2022-09-13T04:33:11.967Z,99269.94
2022-09-13T04:35:41.255Z,99277.94
2022-09-13T04:38:10.454Z,99277.13
2022-09-13T04:40:39.686Z,99267.86
2022-09-13T04:43:08.650Z,99267.86
2022-09-13T04:45:39.473Z,99275.39
2022-09-13T04:48:09.069Z,99279.02
2022-09-13T04:50:38.183Z,99271.39
2022-09-13T04:53:07.212Z,99271.34
2022-09-13T04:55:37.057Z,99273.22
2022-09-13T04:58:06.075Z,99268.63
2022-09-13T05:00:35.808Z,99269.73
2022-09-13T05:03:04.833Z,99269.73
2022-09-13T05:05:34.080Z,99266.61
2022-09-13T05:08:03.738Z,99268.31
2022-09-13T05:10:32.832Z,99265.34
2022-09-13T05:13:01.818Z,99277.47
2022-09-13T05:15:30.818Z,99282.16
2022-09-13T05:17:59.822Z,99272.42
2022-09-13T05:20:28.860Z,99279.23
2022-09-13T05:22:57.860Z,99273.67
2022-09-13T05:25:26.882Z,99273.11
2022-09-13T05:27:55.829Z,99276.59
2022-09-13T05:30:24.853Z,99284.59
2022-09-13T05:32:53.950Z,99277.76
2022-09-13T05:35:22.882Z,99288.61
2022-09-13T05:37:51.845Z,99288.61
2022-09-13T05:40:20.810Z,99297.97
2022-09-13T05:42:49.852Z,99297.97
2022-09-13T05:45:18.909Z,99307.77
2022-09-13T05:47:50.756Z,99306.23
2022-09-13T05:50:45.094Z,99304.63
2022-09-13T05:52:55.828Z,99307.63
2022-09-13T05:55:25.135Z,99304.34
2022-09-13T05:57:54.105Z,99309.22
2022-09-13T06:00:23.055Z,99316.73
2022-09-13T06:02:52.066Z,99316.53
2022-09-13T06:05:20.993Z,99316.53
2022-09-13T06:07:50.151Z,99318.05
2022-09-13T06:10:20.477Z,99318.05
2022-09-13T06:12:51.104Z,99324.91
2022-09-13T06:15:20.153Z,99323.63
2022-09-13T06:17:49.191Z,99323.63
2022-09-13T06:20:18.381Z,99326.33
2022-09-13T06:22:49.471Z,99337.98
2022-09-13T06:25:18.595Z,99337.98
2022-09-13T06:27:50.356Z,99327.33
2022-09-13T06:30:19.866Z,99331.50
2022-09-13T06:32:48.965Z,99336.14
2022-09-13T06:35:18.040Z,99336.89
2022-09-13T06:37:47.032Z,99340.95
2022-09-13T06:40:17.656Z,99336.34
2022-09-13T06:42:47.785Z,99336.34
2022-09-13T06:45:17.090Z,99340.69
2022-09-13T06:47:46.111Z,99344.80
2022-09-13T06:50:15.056Z,99346.16
2022-09-13T06:52:44.031Z,99346.16
2022-09-13T06:55:13.099Z,99349.44
2022-09-13T06:57:42.301Z,99354.34
2022-09-13T07:00:12.628Z,99354.34
2022-09-13T07:02:41.650Z,99347.83
2022-09-13T07:05:11.341Z,99356.06
2022-09-13T07:07:41.049Z,99366.87
2022-09-13T07:10:10.913Z,99352.39
2022-09-13T07:12:43.857Z,99351.02
2022-09-13T07:15:13.156Z,99347.63
2022-09-13T07:17:42.271Z,99347.63
2022-09-13T07:20:11.736Z,99352.08
2022-09-13T07:22:42.726Z,99348.22
2022-09-13T07:25:12.846Z,99354.78
2022-09-13T07:27:42.247Z,99354.74
2022-09-13T07:30:11.846Z,99355.28
2022-09-13T07:32:42.047Z,99353.75
2022-09-13T07:35:12.009Z,99353.00
2022-09-13T07:37:42.694Z,99348.44
2022-09-13T07:40:12.665Z,99348.44
2022-09-13T07:42:41.695Z,99342.36
2022-09-13T07:45:13.059Z,99342.36
2022-09-13T07:47:42.925Z,99342.33
2022-09-13T07:50:12.141Z,99332.86
2022-09-13T07:52:41.470Z,99335.70
2022-09-13T07:55:11.083Z,99347.07
2022-09-13T07:57:40.074Z,99342.58
2022-09-13T08:00:11.238Z,99345.30
2022-09-13T08:02:40.395Z,99344.43
2022-09-13T08:05:09.708Z,99345.09
2022-09-13T08:07:38.693Z,99344.75
2022-09-13T08:10:08.310Z,99340.63
2022-09-13T08:12:37.294Z,99348.06
2022-09-13T08:15:06.919Z,99335.05
2022-09-13T08:17:35.922Z,99341.50
2022-09-13T08:20:06.296Z,99340.44
2022-09-13T08:22:35.518Z,99340.44
2022-09-13T08:25:04.706Z,99346.28
2022-09-13T08:27:33.745Z,99333.64
2022-09-13T08:30:02.774Z,99340.98
2022-09-13T08:32:31.833Z,99340.98
2022-09-13T08:35:00.788Z,99343.20
2022-09-13T08:37:29.805Z,99339.73
2022-09-13T08:39:58.840Z,99345.04
2022-09-13T08:42:42.766Z,99331.39
2022-09-13T08:45:12.137Z,99341.08
2022-09-13T08:47:48.438Z,99340.99
2022-09-13T08:50:20.367Z,99340.99
2022-09-13T08:53:09.157Z,99351.16
2022-09-13T08:55:41.324Z,99351.16
2022-09-13T08:58:30.228Z,99345.30
2022-09-13T09:01:11.219Z,99351.38
2022-09-13T09:03:49.442Z,99351.38
2022-09-13T09:06:19.737Z,99343.56
2022-09-13T09:08:54.143Z,99341.56
2022-09-13T09:11:31.767Z,99341.56
2022-09-13T09:14:06.576Z,99337.67
2022-09-13T09:16:38.542Z,99345.16
2022-09-13T09:19:10.389Z,99341.38
2022-09-13T09:21:39.768Z,99341.38
2022-09-13T09:24:11.518Z,99339.37
2022-09-13T09:26:40.518Z,99339.37
2022-09-13T09:29:25.767Z,99331.75
2022-09-13T09:32:19.665Z,99347.00
2022-09-13T09:35:14.455Z,99335.73
2022-09-13T09:37:45.853Z,99331.83
2022-09-13T09:40:17.660Z,99331.83
2022-09-13T09:42:49.813Z,99342.90
2022-09-13T09:45:30.686Z,99346.88
2022-09-13T09:48:02.565Z,99338.76
2022-09-13T09:50:34.423Z,99333.38
2022-09-13T09:53:15.814Z,99339.38
2022-09-13T09:55:53.597Z,99339.38
2022-09-13T09:58:43.817Z,99342.91
2022-09-13T10:01:18.466Z,99342.91
2022-09-13T10:03:53.055Z,99347.58
2022-09-13T10:06:25.748Z,99349.89
2022-09-13T10:09:09.520Z,99349.89
2022-09-13T10:11:59.432Z,99351.08
2022-09-13T10:14:40.338Z,99343.86
2022-09-13T10:17:18.556Z,99343.86
2022-09-13T10:20:02.363Z,99347.06
2022-09-13T10:22:33.730Z,99341.02
2022-09-13T10:25:27.307Z,99341.02
2022-09-13T10:27:59.282Z,99346.06
2022-09-13T10:30:31.178Z,99348.06
2022-09-13T10:33:01.056Z,99343.10
2022-09-13T10:35:31.272Z,99349.25
2022-09-13T10:38:00.345Z,99346.77
2022-09-13T10:40:33.892Z,99341.90
2022-09-13T10:43:07.320Z,99341.90
2022-09-13T10:45:37.132Z,99328.59
2022-09-13T10:48:18.028Z,99328.59
2022-09-13T10:51:11.134Z,99317.85
2022-09-13T10:54:00.812Z,99323.23
2022-09-13T10:56:29.814Z,99321.38
2022-09-13T10:59:18.536Z,99313.84
2022-09-13T11:02:23.908Z,99319.04
2022-09-13T11:05:25.589Z,99316.25
2022-09-13T11:08:13.069Z,99316.25
2022-09-13T11:10:50.868Z,99316.88
2022-09-13T11:13:37.427Z,99333.08
2022-09-13T11:16:30.403Z,99333.08
2022-09-13T11:19:37.153Z,99321.92
2022-09-13T11:22:23.868Z,99321.92
2022-09-13T11:25:04.843Z,99318.16
2022-09-13T11:27:36.876Z,99318.16
2022-09-13T11:30:20.636Z,99329.36
2022-09-13T11:33:09.343Z,99321.99
2022-09-13T11:35:53.317Z,99324.17
2022-09-13T11:38:59.006Z,99326.94
2022-09-13T11:41:55.474Z,99326.94
2022-09-13T11:44:36.210Z,99331.23
2022-09-13T11:47:27.473Z,99324.08
2022-09-13T11:50:03.928Z,99332.11
2022-09-13T11:52:48.496Z,99340.17
2022-09-13T11:55:31.839Z,99335.62
2022-09-13T11:58:06.706Z,99326.96
2022-09-13T12:00:40.239Z,99336.41
2022-09-13T12:03:15.342Z,99333.77
2022-09-13T12:05:53.557Z,99332.97
2022-09-13T12:08:43.435Z,99332.97
2022-09-13T12:11:19.780Z,99331.54
2022-09-13T12:13:52.327Z,99326.05
2022-09-13T12:16:34.086Z,99326.05
2022-09-13T12:19:03.504Z,99326.64
2022-09-13T12:21:35.505Z,99326.64
2022-09-13T12:24:19.866Z,99322.75
2022-09-13T12:27:03.920Z,99333.65
2022-09-13T12:29:50.820Z,99338.86
2022-09-13T12:32:21.019Z,99339.38
2022-09-13T12:34:59.081Z,99339.38
2022-09-13T12:37:49.446Z,99339.79
2022-09-13T12:40:23.984Z,99339.79
2022-09-13T12:43:15.669Z,99342.52
2022-09-13T12:45:58.270Z,99351.14
2022-09-13T12:49:05.283Z,99341.47
2022-09-13T12:51:58.727Z,99352.05
2022-09-13T12:54:39.529Z,99352.05
2022-09-13T12:57:40.148Z,99353.75
2022-09-13T13:00:15.025Z,99353.75
2022-09-13T13:02:54.717Z,99368.70
2022-09-13T13:05:38.702Z,99364.88
2022-09-13T13:08:10.734Z,99364.88
2022-09-13T13:10:40.584Z,99359.36
2022-09-13T13:13:15.290Z,99370.27
2022-09-13T13:15:50.043Z,99357.80
2022-09-13T13:18:27.460Z,99356.56
2022-09-13T13:20:59.317Z,99356.56
2022-09-13T13:23:36.870Z,99350.41
2022-09-13T13:26:24.072Z,99360.84
2022-09-13T13:29:15.913Z,99360.84
2022-09-13T13:31:47.985Z,99363.47
2022-09-13T13:34:19.904Z,99363.47
2022-09-13T13:36:51.662Z,99367.30
2022-09-13T13:39:29.772Z,99364.92
2022-09-13T13:42:17.873Z,99367.16
2022-09-13T13:44:49.917Z,99363.02
2022-09-13T13:47:21.879Z,99364.95
2022-09-13T13:49:56.499Z,99356.01
2022-09-13T13:52:30.029Z,99356.01
2022-09-13T13:55:31.992Z,99359.80
2022-09-13T13:58:06.892Z,99355.29
2022-09-13T14:00:37.897Z,99363.63
2022-09-13T14:03:26.420Z,99360.91
2022-09-13T14:06:01.090Z,99365.47
2022-09-13T14:08:48.392Z,99363.08
2022-09-13T14:11:40.049Z,99361.63
2022-09-13T14:14:39.027Z,99358.48
2022-09-13T14:17:32.084Z,99363.56
2022-09-13T14:20:13.260Z,99362.64
2022-09-13T14:22:42.253Z,99372.91
2022-09-13T14:25:26.765Z,99371.66
2022-09-13T14:27:58.617Z,99382.91
2022-09-13T14:30:39.000Z,99365.06
2022-09-13T14:33:09.730Z,99376.22
2022-09-13T14:35:41.063Z,99370.94
2022-09-13T14:38:25.524Z,99364.88
2022-09-13T14:40:57.109Z,99372.67
2022-09-13T14:43:28.884Z,99379.01
2022-09-13T14:46:03.919Z,99386.38
2022-09-13T14:48:35.751Z,99377.16
2022-09-13T14:51:07.640Z,99389.72
2022-09-13T14:53:37.752Z,99389.16
2022-09-13T14:56:21.641Z,99393.78
2022-09-13T14:58:53.703Z,99393.91
2022-09-13T15:01:25.583Z,99393.91
2022-09-13T15:03:59.317Z,99396.44
2022-09-13T15:06:34.372Z,99404.45
2022-09-13T15:09:14.954Z,99403.34
2022-09-13T15:11:59.657Z,99403.34
2022-09-13T15:14:33.395Z,99405.47
2022-09-13T15:17:14.392Z,99402.05
2022-09-13T15:19:46.333Z,99408.56
2022-09-13T15:22:18.364Z,99408.56
2022-09-13T15:24:50.867Z,99410.48
2022-09-13T15:27:34.978Z,99405.61
2022-09-13T15:30:06.701Z,99414.56
2022-09-13T15:32:39.250Z,99416.42
2022-09-13T15:35:32.236Z,99402.73
2022-09-13T15:38:05.341Z,99402.73
2022-09-13T15:40:37.328Z,99408.48
2022-09-13T15:43:07.466Z,99401.30
2022-09-13T15:45:36.479Z,99408.06
2022-09-13T15:48:07.485Z,99407.03
2022-09-13T15:50:38.390Z,99420.09
2022-09-13T15:53:10.212Z,99420.09
2022-09-13T15:55:40.992Z,99423.74
2022-09-13T15:58:11.743Z,99409.78
2022-09-13T16:00:40.865Z,99409.78
2022-09-13T16:03:10.830Z,99420.40
2022-09-13T16:05:39.817Z,99420.40
2022-09-13T16:08:10.604Z,99428.34
2022-09-13T16:10:39.753Z,99428.34
2022-09-13T16:13:09.109Z,99431.21
2022-09-13T16:15:38.069Z,99430.45
2022-09-13T16:18:07.108Z,99433.18
2022-09-13T16:20:36.172Z,99443.49
2022-09-13T16:23:05.171Z,99426.81
2022-09-13T16:25:35.201Z,99442.06
2022-09-13T16:28:05.050Z,99434.18
2022-09-13T16:30:34.314Z,99446.35
2022-09-13T16:33:03.903Z,99446.35
2022-09-13T16:35:33.906Z,99449.47
2022-09-13T16:38:02.882Z,99447.58
2022-09-13T16:40:31.867Z,99450.92
2022-09-13T16:43:00.885Z,99453.48
2022-09-13T16:45:29.869Z,99453.48
2022-09-13T16:47:58.841Z,99450.62
2022-09-13T16:50:30.112Z,99454.77
2022-09-13T16:52:58.881Z,99454.77
2022-09-13T16:55:28.108Z,99461.10
2022-09-13T16:57:57.137Z,99461.10
2022-09-13T17:00:27.905Z,99461.14
2022-09-13T17:02:58.554Z,99460.08
2022-09-13T17:05:28.884Z,99458.89
2022-09-13T17:07:57.841Z,99469.20
2022-09-13T17:10:27.195Z,99469.20
2022-09-13T17:12:56.225Z,99467.56
2022-09-13T17:15:25.344Z,99475.66
2022-09-13T17:17:54.265Z,99475.66
2022-09-13T17:20:23.291Z,99469.75
2022-09-13T17:22:52.312Z,99475.77
2022-09-13T17:25:21.324Z,99464.25
2022-09-13T17:27:50.610Z,99468.97
2022-09-13T17:30:19.951Z,99468.97
2022-09-13T17:32:49.107Z,99476.71
2022-09-13T17:35:18.244Z,99475.77
2022-09-13T17:37:47.318Z,99466.27
2022-09-13T17:40:16.419Z,99485.50
2022-09-13T17:42:47.025Z,99491.95
2022-09-13T17:45:16.089Z,99488.68
2022-09-13T17:47:45.205Z,99488.68
2022-09-13T17:50:14.470Z,99489.24
2022-09-13T17:52:43.913Z,99489.82
2022-09-13T17:55:13.223Z,99484.39
2022-09-13T17:57:42.266Z,99484.39
2022-09-13T18:00:15.426Z,99488.11
2022-09-13T18:02:46.259Z,99495.07
2022-09-13T18:05:15.247Z,99492.02
2022-09-13T18:07:44.336Z,99493.90
2022-09-13T18:10:38.782Z,99501.06
2022-09-13T18:12:44.034Z,99494.91
2022-09-13T18:15:13.477Z,99497.59
2022-09-13T18:17:42.446Z,99497.38
2022-09-13T18:20:11.845Z,99494.09
2022-09-13T18:22:40.808Z,99494.09
2022-09-13T18:25:09.917Z,99497.68
2022-09-13T18:27:38.977Z,99494.41
2022-09-13T18:30:08.541Z,99486.48
2022-09-13T18:32:37.614Z,99479.20
2022-09-13T18:35:07.462Z,99479.27
2022-09-13T18:37:36.404Z,99478.97
2022-09-13T18:40:07.763Z,99478.97
2022-09-13T18:42:36.694Z,99475.80
2022-09-13T18:45:07.117Z,99485.13
2022-09-13T18:47:36.117Z,99477.70
2022-09-13T18:50:08.161Z,99474.58
2022-09-13T18:52:36.488Z,99468.08
2022-09-13T18:55:05.753Z,99468.08
2022-09-13T18:57:34.725Z,99472.60
2022-09-13T19:00:04.508Z,99472.60
2022-09-13T19:02:33.873Z,99472.22
2022-09-13T19:05:06.878Z,99475.93
2022-09-13T19:07:33.725Z,99480.35
2022-09-13T19:10:02.699Z,99480.35
2022-09-13T19:12:31.864Z,99471.62
2022-09-13T19:15:00.865Z,99465.55
2022-09-13T19:17:29.943Z,99461.59
2022-09-13T19:19:59.224Z,99457.95
2022-09-13T19:22:28.207Z,99457.95
2022-09-13T19:24:57.199Z,99467.80
2022-09-13T19:27:26.268Z,99467.80
2022-09-13T19:29:55.235Z,99464.84
2022-09-13T19:32:24.192Z,99469.89
2022-09-13T19:34:53.229Z,99462.34
2022-09-13T19:37:22.284Z,99472.64
2022-09-13T19:39:51.460Z,99472.64
2022-09-13T19:42:20.382Z,99469.73
2022-09-13T19:44:49.386Z,99474.41
2022-09-13T19:49:49.907Z,99465.80
2022-09-13T19:52:19.109Z,99477.08
2022-09-13T19:54:48.372Z,99473.91
2022-09-13T19:57:17.407Z,99473.91
2022-09-13T19:59:46.437Z,99474.33
2022-09-13T20:02:15.673Z,99474.33
2022-09-13T20:04:45.501Z,99479.44
2022-09-13T20:07:14.705Z,99472.69
2022-09-13T20:09:45.360Z,99477.80
2022-09-13T20:12:15.162Z,99482.11
2022-09-13T20:14:44.160Z,99488.24
2022-09-13T20:17:13.110Z,99483.97
2022-09-13T20:19:47.679Z,99483.97
2022-09-13T20:22:12.977Z,99482.94
2022-09-13T20:24:42.016Z,99482.94
2022-09-13T20:27:11.036Z,99475.94
2022-09-13T20:29:40.609Z,99491.84
2022-09-13T20:32:09.778Z,99491.84
2022-09-13T20:34:39.611Z,99486.99
2022-09-13T20:37:08.620Z,99492.94
2022-09-13T20:39:37.615Z,99496.70
2022-09-13T20:42:07.082Z,99506.53
2022-09-13T20:44:36.061Z,99504.28
2022-09-13T20:47:05.494Z,99510.45
2022-09-13T20:49:34.446Z,99503.48
2022-09-13T20:52:03.724Z,99511.48
2022-09-13T20:54:32.757Z,99511.48
2022-09-13T20:57:01.696Z,99512.26
2022-09-13T20:59:30.673Z,99505.09
2022-09-13T21:01:59.800Z,99504.99
2022-09-13T21:04:28.881Z,99512.03
2022-09-13T21:07:16.103Z,99507.69
2022-09-13T21:09:45.501Z,99518.97
2022-09-13T21:12:15.784Z,99513.86
2022-09-13T21:14:46.535Z,99513.06
2022-09-13T21:17:15.625Z,99513.06
2022-09-13T21:19:44.717Z,99512.58
2022-09-13T21:22:13.891Z,99517.40
2022-09-13T21:24:42.902Z,99512.84
2022-09-13T21:27:12.163Z,99513.58
2022-09-13T21:29:41.215Z,99522.95
2022-09-13T21:32:10.646Z,99518.58
2022-09-13T21:34:39.653Z,99513.47
2022-09-13T21:37:08.640Z,99517.52
2022-09-13T21:39:38.022Z,99517.52
2022-09-13T21:42:07.442Z,99514.02
2022-09-13T21:44:36.518Z,99518.09
2022-09-13T21:47:05.457Z,99511.83
2022-09-13T21:49:34.535Z,99511.83
2022-09-13T21:52:04.002Z,99508.06
2022-09-13T21:54:32.949Z,99520.50
2022-09-13T21:57:02.001Z,99518.31
2022-09-13T21:59:31.231Z,99515.33
2022-09-13T22:02:01.140Z,99515.91
2022-09-13T22:04:30.207Z,99515.91
2022-09-13T22:06:59.281Z,99518.58
2022-09-13T22:09:29.013Z,99526.56
2022-09-13T22:11:59.475Z,99522.68
2022-09-13T22:14:28.574Z,99530.61
2022-09-13T22:16:57.679Z,99522.38
2022-09-13T22:19:28.358Z,99534.98
2022-09-13T22:21:59.730Z,99537.17
2022-09-13T22:24:32.928Z,99537.17
2022-09-13T22:27:02.281Z,99527.17
2022-09-13T22:29:31.302Z,99543.72
2022-09-13T22:32:00.393Z,99547.73
2022-09-13T22:34:31.120Z,99540.70
2022-09-13T22:37:00.371Z,99542.06
2022-09-13T22:39:29.496Z,99556.39
2022-09-13T22:41:58.447Z,99556.39
2022-09-13T22:44:27.692Z,99563.72
2022-09-13T22:46:58.339Z,99562.32
2022-09-13T22:49:27.372Z,99562.27
2022-09-13T22:51:56.332Z,99569.59
2022-09-13T22:54:25.305Z,99569.06
2022-09-13T22:56:54.327Z,99565.84
2022-09-13T22:59:23.799Z,99565.84
2022-09-13T23:01:53.333Z,99573.41
2022-09-13T23:04:22.488Z,99581.25
2022-09-13T23:06:51.460Z,99580.96
2022-09-13T23:09:20.676Z,99583.09
2022-09-13T23:11:49.624Z,99583.16
2022-09-13T23:14:20.270Z,99583.16
2022-09-13T23:16:51.913Z,99578.62
2022-09-13T23:19:23.425Z,99589.91
2022-09-13T23:21:54.081Z,99587.22
2022-09-13T23:24:24.434Z,99596.93
2022-09-13T23:26:56.736Z,99596.93
2022-09-13T23:29:25.958Z,99598.83
2022-09-13T23:31:55.928Z,99600.42
2022-09-13T23:34:25.417Z,99595.85
2022-09-13T23:36:55.194Z,99595.85
2022-09-13T23:39:24.621Z,99606.08
2022-09-13T23:41:53.947Z,99607.47
2022-09-13T23:44:22.912Z,99613.42
2022-09-13T23:46:52.647Z,99611.73
2022-09-13T23:49:22.030Z,99615.30
2022-09-13T23:51:51.428Z,99615.30
2022-09-13T23:54:20.570Z,99612.05
2022-09-13T23:56:49.615Z,99623.12
2022-09-13T23:59:18.783Z,99622.30
